Time;durP1;ratioP1;P1;durP2;ratioP2;P2;SDS_P1;SDS_P2;PMS_P1;PMS_P2;Temp;Humidity;BMP_temperature;BMP_pressure;BME280_temperature;BME280_humidity;BME280_pressure;Samples;Min_cycle;Max_cycle;Signal;HPM_P1;HPM_P2
2024/01/29 00:01:45;;;;;;;2.45;2.30;;;3.20;99.90;;;;;;5009176;28;20125;-80
2024/01/29 00:04:10;;;;;;;2.80;2.00;;;3.30;99.90;;;;;;5009163;28;20052;-80
2024/01/29 00:06:36;;;;;;;2.50;1.75;;;3.20;99.90;;;;;;4989377;28;20121;-80
2024/01/29 00:09:02;;;;;;;4.45;2.72;;;3.20;99.90;;;;;;4990064;28;20112;-80
2024/01/29 00:11:27;;;;;;;2.47;1.75;;;3.10;99.90;;;;;;5012053;28;20082;-80
2024/01/29 00:13:53;;;;;;;3.10;2.78;;;3.20;99.90;;;;;;4986303;28;20045;-81
2024/01/29 00:16:18;;;;;;;2.15;1.67;;;3.10;99.90;;;;;;5001296;28;20104;-80
2024/01/29 00:18:44;;;;;;;5.95;2.20;;;3.10;99.90;;;;;;5007081;28;20049;-80
2024/01/29 00:21:10;;;;;;;3.25;2.25;;;3.10;99.90;;;;;;5005742;28;20485;-80
2024/01/29 00:23:35;;;;;;;2.15;1.95;;;3.10;99.90;;;;;;5012637;28;20053;-80
2024/01/29 00:26:01;;;;;;;2.25;1.65;;;3.00;99.90;;;;;;4989226;28;20485;-81
2024/01/29 00:28:27;;;;;;;2.53;2.33;;;3.00;99.90;;;;;;4996602;28;20128;-80
2024/01/29 00:30:52;;;;;;;1.95;1.85;;;3.00;99.90;;;;;;4996645;28;20045;-80
2024/01/29 00:33:18;;;;;;;3.92;2.03;;;3.00;99.90;;;;;;4989845;28;20038;-80
2024/01/29 00:35:44;;;;;;;2.55;2.17;;;3.00;99.90;;;;;;4996530;28;20382;-81
2024/01/29 00:38:09;;;;;;;6.82;2.08;;;3.00;99.90;;;;;;4999411;28;20050;-81
2024/01/29 00:40:37;;;;;;;2.17;2.00;;;2.90;99.90;;;;;;5000530;28;20069;-80
2024/01/29 00:43:03;;;;;;;3.10;2.25;;;2.90;99.90;;;;;;4987621;28;20074;-80
2024/01/29 00:45:29;;;;;;;1.45;1.38;;;2.80;99.90;;;;;;4994994;28;20532;-81
2024/01/29 00:47:55;;;;;;;2.47;2.30;;;2.80;99.90;;;;;;5001124;28;20041;-81
2024/01/29 00:50:20;;;;;;;3.33;2.00;;;2.80;99.90;;;;;;5008257;28;20074;-80
2024/01/29 00:52:46;;;;;;;2.13;1.40;;;2.70;99.90;;;;;;4986260;28;20513;-80
2024/01/29 00:55:12;;;;;;;4.18;3.30;;;2.70;99.90;;;;;;4989165;28;20378;-80
2024/01/29 00:57:38;;;;;;;3.05;2.78;;;2.70;99.90;;;;;;5000684;28;20049;-80
2024/01/29 01:00:06;;;;;;;2.28;1.83;;;2.70;99.90;;;;;;4982028;28;20051;-80
2024/01/29 01:02:32;;;;;;;3.53;2.47;;;2.60;99.90;;;;;;4998650;28;20097;-80
2024/01/29 01:04:58;;;;;;;2.10;2.00;;;2.60;99.90;;;;;;4976934;28;20037;-80
2024/01/29 01:07:23;;;;;;;1.75;1.58;;;2.60;99.90;;;;;;4997860;28;20038;-80
2024/01/29 01:09:49;;;;;;;1.10;1.10;;;2.60;99.90;;;;;;4991216;28;20528;-80
2024/01/29 01:12:14;;;;;;;1.88;1.77;;;2.50;99.90;;;;;;5004638;28;20137;-80
2024/01/29 01:14:40;;;;;;;1.73;1.65;;;2.60;99.90;;;;;;4998325;28;20489;-81
2024/01/29 01:17:05;;;;;;;6.25;2.47;;;2.50;99.90;;;;;;5011259;28;20053;-80
2024/01/29 01:19:31;;;;;;;1.95;1.77;;;2.60;99.90;;;;;;4974454;28;20050;-80
2024/01/29 01:21:57;;;;;;;2.75;1.20;;;2.50;99.90;;;;;;4989368;28;20034;-81
2024/01/29 01:24:22;;;;;;;1.77;1.50;;;2.50;99.90;;;;;;4990710;28;20052;-80
2024/01/29 01:26:48;;;;;;;1.65;1.15;;;2.50;99.90;;;;;;5023258;28;20076;-80
2024/01/29 01:29:13;;;;;;;3.97;1.95;;;2.50;99.90;;;;;;5023055;28;20149;-80
2024/01/29 01:31:39;;;;;;;1.85;1.70;;;2.50;99.90;;;;;;5005566;28;20057;-80
2024/01/29 01:34:05;;;;;;;2.65;2.42;;;2.50;99.90;;;;;;4989815;28;20049;-80
2024/01/29 01:36:30;;;;;;;1.40;1.35;;;2.50;99.90;;;;;;5006078;28;20557;-80
2024/01/29 01:38:56;;;;;;;2.63;1.83;;;2.40;99.90;;;;;;5007520;28;20527;-80
2024/01/29 01:41:21;;;;;;;1.88;1.77;;;2.40;99.90;;;;;;5007661;28;20034;-80
2024/01/29 01:43:47;;;;;;;1.63;1.63;;;2.40;99.90;;;;;;4973769;28;20122;-80
2024/01/29 01:46:23;;;;;;;2.35;1.98;;;2.40;99.90;;;;;;4990070;28;20061;-80
2024/01/29 01:48:51;;;;;;;1.55;1.05;;;2.40;99.90;;;;;;5007598;28;20520;-80
2024/01/29 01:51:18;;;;;;;0.77;0.77;;;2.30;99.90;;;;;;5006362;28;20124;-80
2024/01/29 01:53:45;;;;;;;2.05;0.93;;;2.30;99.90;;;;;;4989256;28;20061;-80
2024/01/29 01:56:11;;;;;;;1.52;1.42;;;2.30;99.90;;;;;;4989793;28;20392;-80
2024/01/29 01:58:40;;;;;;;2.35;1.42;;;2.30;99.90;;;;;;4989194;28;20156;-80
2024/01/29 02:01:06;;;;;;;2.03;1.73;;;2.30;99.90;;;;;;5006982;28;20104;-80
2024/01/29 02:03:32;;;;;;;2.70;1.80;;;2.30;99.90;;;;;;4989539;28;20488;-81
2024/01/29 02:05:58;;;;;;;1.33;1.23;;;2.20;99.90;;;;;;4985555;28;20081;-80
2024/01/29 02:08:24;;;;;;;1.90;1.80;;;2.30;99.90;;;;;;4985941;28;20082;-81
2024/01/29 02:10:52;;;;;;;1.42;1.33;;;2.20;99.90;;;;;;4993510;28;20037;-80
2024/01/29 02:13:18;;;;;;;2.08;1.95;;;2.20;99.90;;;;;;4976064;28;20133;-80
2024/01/29 02:15:43;;;;;;;1.42;1.33;;;2.20;99.90;;;;;;5002464;28;20141;-80
2024/01/29 02:18:12;;;;;;;3.75;1.70;;;2.20;99.90;;;;;;5009102;28;20053;-80
2024/01/29 02:20:46;;;;;;;2.20;2.07;;;2.20;99.90;;;;;;4983261;28;20053;-80
2024/01/29 02:23:11;;;;;;;3.13;1.90;;;2.20;99.90;;;;;;5014974;28;20034;-80
2024/01/29 02:25:37;;;;;;;2.00;1.90;;;2.10;99.90;;;;;;5010876;28;20084;-80
2024/01/29 02:28:02;;;;;;;2.60;2.40;;;2.10;99.90;;;;;;4979855;28;20405;-80
2024/01/29 02:30:28;;;;;;;2.60;1.27;;;2.10;99.90;;;;;;5019078;28;20088;-80
2024/01/29 02:32:54;;;;;;;1.88;1.58;;;2.10;99.90;;;;;;5021959;28;20054;-80
2024/01/29 02:35:19;;;;;;;1.60;1.50;;;2.10;99.90;;;;;;5022452;28;20037;-80
2024/01/29 02:37:45;;;;;;;3.25;2.22;;;2.10;99.90;;;;;;5007751;28;20050;-80
2024/01/29 02:40:11;;;;;;;2.35;2.15;;;2.10;99.90;;;;;;4989246;28;20567;-80
2024/01/29 02:42:36;;;;;;;1.77;1.45;;;2.10;99.90;;;;;;4989101;28;20049;-80
2024/01/29 02:45:04;;;;;;;2.80;1.97;;;2.10;99.90;;;;;;5010050;28;20540;-80
2024/01/29 02:47:29;;;;;;;2.47;2.00;;;2.10;99.90;;;;;;5011782;28;20085;-79
2024/01/29 02:49:55;;;;;;;3.57;1.80;;;2.10;99.90;;;;;;4983724;28;20069;-80
2024/01/29 02:52:21;;;;;;;2.88;2.58;;;2.10;99.90;;;;;;5005458;28;20043;-80
2024/01/29 02:54:47;;;;;;;3.50;1.70;;;2.10;99.90;;;;;;5006450;28;20101;-80
2024/01/29 02:57:12;;;;;;;4.00;2.67;;;2.10;99.90;;;;;;4991175;28;20112;-80
2024/01/29 02:59:38;;;;;;;7.78;3.42;;;2.10;99.90;;;;;;4991930;28;20046;-80
2024/01/29 03:02:04;;;;;;;2.50;1.40;;;2.10;99.90;;;;;;4992349;28;20101;-80
2024/01/29 03:04:30;;;;;;;2.42;2.33;;;2.10;99.90;;;;;;5010286;28;20063;-80
2024/01/29 03:06:55;;;;;;;2.93;2.37;;;2.10;99.90;;;;;;4990967;28;20056;-80
2024/01/29 03:09:21;;;;;;;1.33;1.30;;;2.20;99.90;;;;;;5017638;28;20089;-80
2024/01/29 03:11:46;;;;;;;1.65;1.55;;;2.20;99.90;;;;;;5016999;28;20062;-80
2024/01/29 03:14:12;;;;;;;3.43;2.77;;;2.20;99.90;;;;;;5009067;28;20140;-80
2024/01/29 03:16:37;;;;;;;2.30;2.17;;;2.20;99.90;;;;;;5007965;28;20044;-80
2024/01/29 03:19:03;;;;;;;2.05;1.95;;;2.20;99.90;;;;;;5002684;28;20455;-80
2024/01/29 03:21:29;;;;;;;2.28;2.17;;;2.20;99.90;;;;;;5004711;28;20046;-81
2024/01/29 03:23:55;;;;;;;1.52;1.42;;;2.20;99.90;;;;;;4990998;28;20046;-80
2024/01/29 03:26:21;;;;;;;1.42;1.33;;;2.20;99.90;;;;;;4959870;28;20038;-80
2024/01/29 03:28:47;;;;;;;8.90;2.25;;;2.20;99.90;;;;;;4998441;28;21649;-80
2024/01/29 03:31:12;;;;;;;2.63;1.83;;;2.20;99.90;;;;;;5006886;28;20050;-80
2024/01/29 03:33:38;;;;;;;3.28;2.20;;;2.20;99.90;;;;;;5023904;28;20408;-80
2024/01/29 03:36:04;;;;;;;2.92;2.35;;;2.20;99.90;;;;;;5015379;28;20109;-80
2024/01/29 03:38:30;;;;;;;3.10;2.83;;;2.10;99.90;;;;;;4974381;28;20097;-80
2024/01/29 03:40:56;;;;;;;7.82;2.00;;;2.10;99.90;;;;;;5007338;28;20566;-81
2024/01/29 03:43:21;;;;;;;2.08;1.40;;;2.20;99.90;;;;;;5008161;28;20156;-80
2024/01/29 03:45:47;;;;;;;2.53;2.20;;;2.20;99.90;;;;;;5005733;28;20054;-80
2024/01/29 03:48:13;;;;;;;2.97;1.60;;;2.10;99.90;;;;;;5003319;28;20036;-80
2024/01/29 03:50:38;;;;;;;4.18;2.33;;;2.20;99.90;;;;;;5012693;28;20050;-80
2024/01/29 03:53:04;;;;;;;3.17;2.35;;;2.10;99.90;;;;;;4989506;28;20054;-80
2024/01/29 03:55:29;;;;;;;3.75;2.13;;;2.20;99.90;;;;;;5008683;28;20033;-80
2024/01/29 03:57:55;;;;;;;5.17;3.23;;;2.20;99.90;;;;;;5003683;28;20038;-80
2024/01/29 04:00:22;;;;;;;3.27;2.67;;;2.20;99.90;;;;;;4964993;28;20061;-80
2024/01/29 04:02:49;;;;;;;3.35;2.72;;;2.20;99.90;;;;;;4972520;28;20441;-80
2024/01/29 04:05:15;;;;;;;2.97;1.98;;;2.20;99.90;;;;;;4987522;28;20042;-80
2024/01/29 04:07:41;;;;;;;2.77;2.13;;;2.30;99.90;;;;;;5004235;28;20123;-80
2024/01/29 04:10:07;;;;;;;2.73;2.57;;;2.30;99.90;;;;;;5002191;28;20540;-80
2024/01/29 04:12:33;;;;;;;1.95;1.85;;;2.30;99.90;;;;;;4991114;28;20137;-80
2024/01/29 04:14:58;;;;;;;2.17;2.00;;;2.20;99.90;;;;;;5008936;28;20050;-81
2024/01/29 04:17:24;;;;;;;5.67;2.47;;;2.20;99.90;;;;;;5008303;28;20061;-80
2024/01/29 04:19:50;;;;;;;4.37;3.20;;;2.20;99.90;;;;;;5002156;28;20109;-80
2024/01/29 04:22:15;;;;;;;2.10;2.00;;;2.30;99.90;;;;;;4985036;28;20507;-80
2024/01/29 04:24:41;;;;;;;2.28;2.10;;;2.30;99.90;;;;;;5012535;28;20189;-80
2024/01/29 04:27:06;;;;;;;3.22;2.17;;;2.30;99.90;;;;;;5000861;28;20030;-80
2024/01/29 04:29:32;;;;;;;2.83;2.60;;;2.30;99.90;;;;;;5003865;28;20084;-80
2024/01/29 04:31:58;;;;;;;5.67;3.00;;;2.30;99.90;;;;;;5014818;28;20034;-80
2024/01/29 04:34:23;;;;;;;4.17;1.77;;;2.30;99.90;;;;;;5008426;28;20042;-81
2024/01/29 04:36:49;;;;;;;7.82;4.07;;;2.30;99.90;;;;;;4990468;28;20373;-80
2024/01/29 04:39:14;;;;;;;2.05;1.85;;;2.30;99.90;;;;;;5023688;28;20139;-80
2024/01/29 04:41:40;;;;;;;4.82;2.75;;;2.30;99.90;;;;;;5008188;28;20417;-80
2024/01/29 04:44:06;;;;;;;8.15;1.88;;;2.30;99.90;;;;;;5006979;28;20096;-80
2024/01/29 04:46:31;;;;;;;2.28;2.10;;;2.30;99.90;;;;;;5021715;28;20125;-80
2024/01/29 04:48:57;;;;;;;2.58;2.38;;;2.30;99.90;;;;;;4995979;28;20041;-80
2024/01/29 04:51:22;;;;;;;1.80;1.42;;;2.30;99.90;;;;;;4989753;28;20507;-80
2024/01/29 04:53:48;;;;;;;1.77;1.67;;;2.30;99.90;;;;;;4993494;28;20130;-80
2024/01/29 04:56:13;;;;;;;2.13;2.03;;;2.30;99.90;;;;;;5001693;28;20046;-80
2024/01/29 04:58:39;;;;;;;2.33;2.13;;;2.30;99.90;;;;;;5011617;28;20357;-80
2024/01/29 05:01:05;;;;;;;2.05;1.85;;;2.30;99.90;;;;;;4983616;28;20125;-80
2024/01/29 05:03:30;;;;;;;3.33;3.13;;;2.30;99.90;;;;;;4996174;28;20061;-80
2024/01/29 05:05:56;;;;;;;3.53;2.45;;;2.30;99.90;;;;;;5015067;28;20045;-80
2024/01/29 05:08:22;;;;;;;3.08;1.63;;;2.30;99.90;;;;;;5002800;28;20039;-80
2024/01/29 05:10:47;;;;;;;3.13;2.93;;;2.30;99.90;;;;;;4982072;28;20096;-80
2024/01/29 05:13:14;;;;;;;4.97;2.20;;;2.40;99.90;;;;;;4971331;28;20492;-80
2024/01/29 05:15:40;;;;;;;4.30;2.00;;;2.40;99.90;;;;;;4976240;28;20492;-80
2024/01/29 05:18:06;;;;;;;2.53;2.30;;;2.30;99.90;;;;;;5006593;28;20053;-80
2024/01/29 05:20:32;;;;;;;2.33;2.22;;;2.30;99.90;;;;;;4989221;28;20037;-80
2024/01/29 05:22:57;;;;;;;3.38;2.83;;;2.30;99.90;;;;;;4989953;28;20046;-81
2024/01/29 05:25:23;;;;;;;3.03;2.53;;;2.40;99.90;;;;;;5022908;28;20045;-80
2024/01/29 05:27:48;;;;;;;2.17;2.08;;;2.30;99.90;;;;;;5022926;28;20038;-80
2024/01/29 05:30:15;;;;;;;2.15;1.98;;;2.40;99.90;;;;;;4984577;28;20123;-80
2024/01/29 05:32:41;;;;;;;2.03;1.77;;;2.30;99.90;;;;;;4983076;28;20056;-80
2024/01/29 05:35:07;;;;;;;1.95;1.85;;;2.30;99.90;;;;;;5021608;28;20038;-80
2024/01/29 05:37:34;;;;;;;6.25;3.22;;;2.30;99.90;;;;;;4987792;28;20489;-80
2024/01/29 05:40:00;;;;;;;4.20;3.67;;;2.30;99.90;;;;;;4970672;28;20039;-79
2024/01/29 05:42:26;;;;;;;2.40;2.20;;;2.30;99.90;;;;;;4970184;28;20054;-80
2024/01/29 05:44:51;;;;;;;2.88;2.53;;;2.30;99.90;;;;;;5003242;28;20045;-80
2024/01/29 05:47:17;;;;;;;5.20;2.30;;;2.30;99.90;;;;;;5002735;28;20051;-80
2024/01/29 05:49:43;;;;;;;4.50;2.97;;;2.30;99.90;;;;;;4997797;28;20056;-80
2024/01/29 05:52:08;;;;;;;2.65;2.45;;;2.40;99.90;;;;;;4981792;28;20046;-80
2024/01/29 05:54:34;;;;;;;3.38;3.08;;;2.30;99.90;;;;;;5003641;28;20516;-80
2024/01/29 05:56:59;;;;;;;2.67;1.83;;;2.30;99.90;;;;;;5013273;28;20158;-80
2024/01/29 05:59:25;;;;;;;2.15;1.95;;;2.40;99.90;;;;;;4987287;28;20061;-81
2024/01/29 06:01:51;;;;;;;6.43;4.60;;;2.40;99.90;;;;;;5018242;28;20078;-80
2024/01/29 06:04:16;;;;;;;3.00;2.65;;;2.40;99.90;;;;;;5018809;28;20401;-80
2024/01/29 06:06:43;;;;;;;2.77;2.13;;;2.50;99.90;;;;;;4985324;28;20424;-80
2024/01/29 06:09:09;;;;;;;3.58;3.38;;;2.50;99.90;;;;;;4987868;28;20402;-80
2024/01/29 06:11:36;;;;;;;3.97;2.57;;;2.50;99.90;;;;;;4987168;28;20058;-80
2024/01/29 06:14:02;;;;;;;2.83;2.73;;;2.50;99.90;;;;;;4987375;28;20046;-81
2024/01/29 06:16:28;;;;;;;3.37;3.17;;;2.60;99.90;;;;;;4994984;28;20034;-80
2024/01/29 06:18:55;;;;;;;3.70;2.67;;;2.60;99.90;;;;;;5002091;28;20137;-80
2024/01/29 06:21:21;;;;;;;2.80;2.60;;;2.60;99.90;;;;;;5002099;28;20055;-78
2024/01/29 06:23:48;;;;;;;4.32;3.53;;;2.60;99.90;;;;;;4997017;28;20054;-80
2024/01/29 06:26:13;;;;;;;3.88;2.33;;;2.70;99.90;;;;;;5006852;28;20514;-80
2024/01/29 06:28:41;;;;;;;3.75;2.63;;;2.70;99.90;;;;;;5006899;28;20116;-80
2024/01/29 06:31:07;;;;;;;4.20;3.90;;;2.70;99.90;;;;;;5005384;28;20073;-81
2024/01/29 06:33:35;;;;;;;3.67;3.33;;;2.70;99.90;;;;;;4980188;28;20490;-80
2024/01/29 06:36:00;;;;;;;3.35;3.05;;;2.70;99.90;;;;;;5002423;28;20046;-80
2024/01/29 06:38:26;;;;;;;3.33;3.05;;;2.70;99.90;;;;;;5006660;28;20053;-81
2024/01/29 06:40:51;;;;;;;2.92;2.72;;;2.70;99.90;;;;;;5001238;28;20065;-80
2024/01/29 06:43:17;;;;;;;2.78;2.58;;;2.70;99.90;;;;;;5006404;28;20085;-82
2024/01/29 06:45:42;;;;;;;2.92;2.72;;;2.70;99.90;;;;;;5005681;28;20053;-82
2024/01/29 06:48:08;;;;;;;2.83;2.63;;;2.70;99.90;;;;;;5014844;28;20041;-82
2024/01/29 06:50:34;;;;;;;4.45;3.92;;;2.70;99.90;;;;;;4988222;28;20050;-82
2024/01/29 06:53:00;;;;;;;1.95;1.85;;;2.70;99.90;;;;;;5005894;28;20063;-82
2024/01/29 06:55:25;;;;;;;5.18;4.68;;;2.80;99.90;;;;;;5004787;28;20026;-83
2024/01/29 06:57:51;;;;;;;2.42;2.33;;;2.80;99.90;;;;;;5006297;28;20038;-81
2024/01/29 07:00:17;;;;;;;4.50;4.13;;;2.80;99.90;;;;;;5006461;28;20045;-81
2024/01/29 07:02:43;;;;;;;1.98;1.88;;;2.80;99.90;;;;;;5005968;28;20132;-81
2024/01/29 07:05:08;;;;;;;4.38;3.97;;;2.80;99.90;;;;;;4988036;28;20173;-81
2024/01/29 07:07:37;;;;;;;4.25;3.85;;;2.80;99.90;;;;;;5006119;28;20042;-81
2024/01/29 07:10:02;;;;;;;3.20;3.00;;;2.80;99.90;;;;;;4986948;28;20039;-81
2024/01/29 07:12:28;;;;;;;2.78;2.40;;;2.90;99.90;;;;;;4991381;28;20504;-81
2024/01/29 07:14:55;;;;;;;6.95;4.15;;;2.80;99.90;;;;;;5005205;28;20397;-81
2024/01/29 07:17:21;;;;;;;3.07;2.77;;;2.80;99.90;;;;;;5006658;28;20042;-81
2024/01/29 07:19:48;;;;;;;4.35;3.70;;;2.90;99.90;;;;;;5001993;28;20046;-80
2024/01/29 07:22:18;;;;;;;3.25;3.05;;;2.90;99.90;;;;;;4986015;28;20050;-82
2024/01/29 07:24:45;;;;;;;3.53;3.30;;;2.90;99.90;;;;;;4988061;28;20093;-82
2024/01/29 07:27:11;;;;;;;4.68;4.25;;;2.90;99.90;;;;;;5005672;28;20046;-82
2024/01/29 07:29:36;;;;;;;5.25;3.63;;;2.90;99.90;;;;;;4988772;28;20504;-82
2024/01/29 07:32:02;;;;;;;2.73;2.57;;;2.90;99.90;;;;;;5015617;28;20041;-82
2024/01/29 07:34:31;;;;;;;3.78;3.47;;;3.00;99.90;;;;;;4972021;28;20104;-83
2024/01/29 07:36:56;;;;;;;3.35;3.05;;;2.90;99.90;;;;;;4987855;28;20089;-83
2024/01/29 07:39:22;;;;;;;3.63;2.20;;;3.00;99.90;;;;;;4990900;28;20073;-81
2024/01/29 07:41:48;;;;;;;3.35;2.92;;;3.00;99.90;;;;;;4998278;28;20038;-82
2024/01/29 07:44:14;;;;;;;4.75;2.75;;;3.00;99.90;;;;;;5000052;28;20034;-82
2024/01/29 07:46:39;;;;;;;3.30;2.97;;;3.00;99.90;;;;;;4996596;28;20073;-82
2024/01/29 07:49:06;;;;;;;4.35;4.05;;;3.10;99.90;;;;;;5002767;28;20109;-82
2024/01/29 07:51:32;;;;;;;4.18;3.65;;;3.10;99.90;;;;;;4970599;28;20098;-82
2024/01/29 07:53:58;;;;;;;10.00;4.88;;;3.10;99.90;;;;;;4982832;28;20628;-81
2024/01/29 07:56:23;;;;;;;6.10;4.05;;;3.10;99.90;;;;;;4989823;28;20398;-83
2024/01/29 07:58:49;;;;;;;5.10;3.38;;;3.10;99.90;;;;;;4983338;28;20057;-81
2024/01/29 08:01:15;;;;;;;5.22;4.43;;;3.10;99.90;;;;;;5008214;28;20124;-81
2024/01/29 08:03:40;;;;;;;6.65;3.47;;;3.20;99.90;;;;;;4992709;28;20096;-81
2024/01/29 08:06:06;;;;;;;2.92;2.65;;;3.20;99.90;;;;;;4990737;28;20619;-81
2024/01/29 08:08:31;;;;;;;3.88;3.53;;;3.20;99.90;;;;;;5008142;28;20068;-81
2024/01/29 08:11:00;;;;;;;5.75;4.20;;;3.20;99.90;;;;;;5008619;28;20084;-80
2024/01/29 08:13:27;;;;;;;4.75;4.38;;;3.20;99.90;;;;;;5007817;28;20049;-80
2024/01/29 08:15:53;;;;;;;5.40;3.80;;;3.20;99.90;;;;;;5003625;28;20061;-80
2024/01/29 08:18:19;;;;;;;3.75;2.47;;;3.20;99.90;;;;;;4995717;28;20045;-79
2024/01/29 08:20:44;;;;;;;7.05;4.05;;;3.20;99.90;;;;;;4989582;28;20408;-82
2024/01/29 08:23:10;;;;;;;3.78;3.42;;;3.20;99.90;;;;;;4963249;28;20079;-81
2024/01/29 08:25:36;;;;;;;5.15;3.90;;;3.20;99.90;;;;;;4996213;28;20050;-82
2024/01/29 08:28:02;;;;;;;6.00;3.25;;;3.20;99.90;;;;;;5012011;28;20049;-78
2024/01/29 08:30:27;;;;;;;3.67;3.38;;;3.20;99.90;;;;;;4999884;28;20060;-78
2024/01/29 08:32:53;;;;;;;3.95;3.05;;;3.30;99.90;;;;;;4995258;28;20077;-80
2024/01/29 08:35:18;;;;;;;3.63;3.28;;;3.30;99.90;;;;;;5007860;28;20060;-79
2024/01/29 08:37:44;;;;;;;4.93;4.38;;;3.30;99.90;;;;;;5006777;28;20046;-79
2024/01/29 08:40:10;;;;;;;4.43;3.67;;;3.30;99.90;;;;;;5018464;28;20030;-78
2024/01/29 08:42:36;;;;;;;4.18;3.60;;;3.30;99.90;;;;;;4988602;28;20546;-79
2024/01/29 08:45:03;;;;;;;4.32;3.75;;;3.40;99.90;;;;;;4957820;28;20069;-78
2024/01/29 08:47:28;;;;;;;3.53;3.22;;;3.40;99.90;;;;;;4989886;28;20046;-79
2024/01/29 08:49:54;;;;;;;3.28;2.55;;;3.40;99.90;;;;;;5013576;28;20034;-79
2024/01/29 08:52:19;;;;;;;5.22;3.33;;;3.50;99.90;;;;;;4999336;28;20041;-78
2024/01/29 08:54:45;;;;;;;3.60;2.50;;;3.50;99.90;;;;;;4981047;28;20046;-78
2024/01/29 08:57:11;;;;;;;5.00;4.50;;;3.50;99.90;;;;;;4989264;28;20445;-78
2024/01/29 08:59:38;;;;;;;4.30;3.22;;;3.60;99.90;;;;;;5005181;28;20501;-77
2024/01/29 09:02:04;;;;;;;6.25;3.80;;;3.60;99.90;;;;;;4991718;28;20132;-77
2024/01/29 09:04:29;;;;;;;6.10;4.80;;;3.60;99.90;;;;;;5006258;28;20556;-75
2024/01/29 09:06:55;;;;;;;4.57;3.50;;;3.70;99.90;;;;;;5007404;28;20417;-77
2024/01/29 09:09:21;;;;;;;6.43;4.18;;;3.70;99.90;;;;;;5008408;28;20060;-77
2024/01/29 09:11:46;;;;;;;3.78;3.17;;;3.80;99.90;;;;;;5006571;28;20493;-77
2024/01/29 09:14:12;;;;;;;4.45;4.13;;;3.80;99.90;;;;;;4989003;28;20476;-77
2024/01/29 09:16:39;;;;;;;8.00;4.18;;;3.90;99.90;;;;;;5006633;28;20080;-77
2024/01/29 09:19:04;;;;;;;4.88;4.15;;;3.90;99.90;;;;;;4973270;28;20037;-78
2024/01/29 09:21:34;;;;;;;6.82;5.47;;;4.00;99.90;;;;;;5005972;28;20128;-78
2024/01/29 09:24:00;;;;;;;3.53;3.22;;;4.00;99.90;;;;;;4989548;28;20041;-77
2024/01/29 09:26:25;;;;;;;6.85;3.67;;;4.10;99.90;;;;;;4988373;28;20045;-78
2024/01/29 09:28:51;;;;;;;5.90;3.67;;;4.10;99.90;;;;;;4989340;28;20455;-77
2024/01/29 09:31:16;;;;;;;4.70;3.72;;;4.10;99.90;;;;;;4989075;28;20042;-77
2024/01/29 09:33:42;;;;;;;3.95;3.25;;;4.20;99.90;;;;;;4988647;28;20053;-77
2024/01/29 09:36:08;;;;;;;6.57;4.03;;;4.20;99.90;;;;;;5004098;28;20084;-77
2024/01/29 09:38:33;;;;;;;6.47;4.10;;;4.30;99.90;;;;;;5006044;28;20053;-77
2024/01/29 09:40:59;;;;;;;4.38;3.65;;;4.30;99.90;;;;;;4988800;28;20564;-77
2024/01/29 09:43:26;;;;;;;5.32;4.65;;;4.40;99.90;;;;;;5006187;28;20133;-78
2024/01/29 09:45:53;;;;;;;8.32;4.20;;;4.40;99.90;;;;;;4988802;28;20056;-77
2024/01/29 09:48:20;;;;;;;5.35;4.03;;;4.50;99.90;;;;;;5006385;28;20034;-77
2024/01/29 09:50:48;;;;;;;5.10;4.28;;;4.50;99.90;;;;;;4971192;28;20045;-77
2024/01/29 09:53:19;;;;;;;4.85;3.10;;;4.50;99.90;;;;;;4988506;28;20479;-77
2024/01/29 09:55:45;;;;;;;6.45;4.15;;;4.60;99.90;;;;;;4988014;28;20065;-77
2024/01/29 09:58:11;;;;;;;8.43;4.68;;;4.60;99.90;;;;;;5006336;28;20053;-77
2024/01/29 10:00:36;;;;;;;6.85;4.72;;;4.60;99.90;;;;;;5005752;28;20052;-77
2024/01/29 10:03:05;;;;;;;5.82;4.22;;;4.70;99.90;;;;;;4972154;28;20053;-77
2024/01/29 10:05:39;;;;;;;4.07;3.67;;;4.70;99.90;;;;;;4987414;28;20148;-78
2024/01/29 10:08:05;;;;;;;4.35;3.42;;;4.80;99.90;;;;;;4971950;28;20408;-78
2024/01/29 10:10:30;;;;;;;4.88;4.18;;;4.80;99.90;;;;;;5005880;28;20049;-77
2024/01/29 10:13:06;;;;;;;7.07;4.75;;;4.90;99.90;;;;;;5001254;28;20062;-78
2024/01/29 10:15:33;;;;;;;6.68;3.95;;;4.90;99.90;;;;;;4986157;28;20046;-77
2024/01/29 10:17:58;;;;;;;7.00;4.40;;;4.90;99.90;;;;;;5017582;28;20082;-77
2024/01/29 10:20:24;;;;;;;6.47;5.65;;;5.00;99.90;;;;;;5016980;28;20081;-78
2024/01/29 10:23:10;;;;;;;7.20;4.53;;;5.00;99.90;;;;;;5018408;28;20050;-77
2024/01/29 10:25:38;;;;;;;7.85;4.95;;;5.00;99.90;;;;;;4984155;28;20093;-77
2024/01/29 10:28:11;;;;;;;5.07;4.57;;;5.10;99.90;;;;;;4984681;28;20144;-77
2024/01/29 10:30:41;;;;;;;9.23;5.25;;;5.10;99.90;;;;;;4968579;28;20050;-77
2024/01/29 10:33:07;;;;;;;7.55;4.55;;;5.10;99.90;;;;;;5001367;28;20038;-77
2024/01/29 10:35:34;;;;;;;6.43;5.25;;;5.20;99.90;;;;;;4967653;28;20193;-78
2024/01/29 10:38:03;;;;;;;6.15;4.38;;;5.20;99.90;;;;;;4986138;28;20046;-77
2024/01/29 10:40:33;;;;;;;10.82;6.15;;;5.20;99.90;;;;;;4986225;28;20533;-77
2024/01/29 10:43:00;;;;;;;15.25;7.05;;;5.30;99.90;;;;;;4984748;28;20358;-77
2024/01/29 10:45:26;;;;;;;5.68;4.45;;;5.40;99.90;;;;;;4985386;28;20508;-78
2024/01/29 10:48:12;;;;;;;7.38;5.50;;;5.40;99.90;;;;;;4986724;28;20049;-77
2024/01/29 10:50:38;;;;;;;11.55;6.13;;;5.40;99.90;;;;;;4964215;28;20043;-77
2024/01/29 10:53:06;;;;;;;9.60;5.88;;;5.50;99.90;;;;;;4966672;28;20608;-77
2024/01/29 10:55:32;;;;;;;8.23;6.25;;;5.50;99.90;;;;;;4982078;28;20497;-78
2024/01/29 10:58:01;;;;;;;9.90;6.60;;;5.50;99.90;;;;;;4968155;28;20050;-77
2024/01/29 11:00:27;;;;;;;12.55;6.28;;;5.60;99.90;;;;;;4985875;28;20039;-78
2024/01/29 11:02:58;;;;;;;10.48;6.05;;;5.60;99.90;;;;;;4986572;28;20056;-77
2024/01/29 11:05:24;;;;;;;9.05;5.78;;;5.60;99.90;;;;;;4968308;28;20074;-78
2024/01/29 11:07:52;;;;;;;7.93;5.13;;;5.60;99.90;;;;;;4969721;28;20470;-77
2024/01/29 11:10:21;;;;;;;16.40;6.30;;;5.70;99.90;;;;;;4988627;28;20053;-77
2024/01/29 11:12:50;;;;;;;14.15;7.20;;;5.70;99.90;;;;;;5021277;28;20129;-77
2024/01/29 11:15:16;;;;;;;12.07;6.32;;;5.70;99.90;;;;;;4972490;28;20046;-78
2024/01/29 11:17:42;;;;;;;14.15;6.20;;;5.70;99.90;;;;;;4988075;28;20042;-77
2024/01/29 11:20:15;;;;;;;14.05;5.95;;;5.80;99.90;;;;;;4988168;28;20052;-77
2024/01/29 11:22:50;;;;;;;8.68;6.20;;;5.80;99.90;;;;;;5004700;28;20061;-77
2024/01/29 11:25:17;;;;;;;14.52;6.00;;;5.80;99.90;;;;;;4989760;28;20129;-77
2024/01/29 11:27:44;;;;;;;13.82;8.18;;;5.90;99.90;;;;;;4987791;28;20527;-76
2024/01/29 11:30:18;;;;;;;24.02;10.65;;;5.90;99.90;;;;;;4972229;28;20470;-78
2024/01/29 11:32:48;;;;;;;17.83;9.02;;;5.90;99.90;;;;;;5019376;28;20046;-79
2024/01/29 11:35:24;;;;;;;18.63;9.85;;;5.90;99.90;;;;;;5019554;28;20054;-79
2024/01/29 11:37:50;;;;;;;13.10;8.82;;;5.90;99.90;;;;;;4990228;28;20177;-79
2024/01/29 11:40:33;;;;;;;24.75;9.38;;;6.00;99.90;;;;;;4989465;28;20109;-78
2024/01/29 11:43:17;;;;;;;20.73;8.05;;;5.90;99.90;;;;;;5021299;28;20046;-79
2024/01/29 11:45:45;;;;;;;22.27;10.20;;;6.00;99.90;;;;;;5019365;28;20074;-78
2024/01/29 11:48:12;;;;;;;14.52;7.80;;;6.00;99.90;;;;;;4987569;28;20046;-78
2024/01/29 11:50:39;;;;;;;24.02;10.75;;;6.00;99.90;;;;;;4988299;28;20046;-79
2024/01/29 11:53:08;;;;;;;12.88;6.97;;;6.00;99.90;;;;;;4971847;28;20046;-78
2024/01/29 11:55:34;;;;;;;14.65;8.82;;;6.10;99.90;;;;;;4988923;28;20362;-78
2024/01/29 11:57:59;;;;;;;18.10;8.43;;;6.10;99.90;;;;;;4989107;28;20080;-79
2024/01/29 12:00:25;;;;;;;15.75;8.20;;;6.10;99.90;;;;;;5020050;28;20046;-79
2024/01/29 12:02:51;;;;;;;14.48;6.90;;;6.10;99.90;;;;;;4989954;28;20053;-78
2024/01/29 12:05:18;;;;;;;20.88;7.72;;;6.10;99.90;;;;;;5019295;28;20042;-79
2024/01/29 12:07:49;;;;;;;13.93;7.53;;;6.10;99.90;;;;;;5020230;28;20141;-79
2024/01/29 12:10:18;;;;;;;21.40;8.07;;;6.20;99.90;;;;;;5020647;28;20046;-79
2024/01/29 12:12:44;;;;;;;14.52;7.40;;;6.20;99.90;;;;;;5017825;28;20054;-79
2024/01/29 12:15:11;;;;;;;12.93;7.97;;;6.20;99.90;;;;;;4987083;28;20093;-79
2024/01/29 12:17:40;;;;;;;14.35;6.55;;;6.20;99.90;;;;;;4986881;28;20131;-79
2024/01/29 12:20:06;;;;;;;12.05;7.35;;;6.30;99.90;;;;;;4986712;28;20050;-79
2024/01/29 12:22:32;;;;;;;8.48;5.43;;;6.20;99.90;;;;;;5020104;28;20069;-79
2024/01/29 12:24:59;;;;;;;12.15;5.05;;;6.30;99.90;;;;;;5018365;28;20038;-79
2024/01/29 12:27:24;;;;;;;7.65;5.78;;;6.30;99.90;;;;;;4988514;28;20500;-79
2024/01/29 12:29:51;;;;;;;8.95;4.95;;;6.40;99.90;;;;;;4987137;28;20078;-79
2024/01/29 12:32:20;;;;;;;8.43;6.45;;;6.40;99.90;;;;;;4988381;28;20104;-79
2024/01/29 12:34:50;;;;;;;8.60;5.13;;;6.40;99.90;;;;;;4985863;28;20085;-79
2024/01/29 12:37:23;;;;;;;9.98;5.18;;;6.40;99.90;;;;;;4969148;28;20042;-79
2024/01/29 12:39:54;;;;;;;8.13;5.35;;;6.50;99.90;;;;;;4983466;28;20050;-78
2024/01/29 12:42:23;;;;;;;8.32;6.20;;;6.50;99.90;;;;;;4969438;28;20053;-79
2024/01/29 12:44:52;;;;;;;9.65;5.60;;;6.60;99.90;;;;;;4976444;28;20042;-78
2024/01/29 12:47:19;;;;;;;8.90;5.32;;;6.60;99.90;;;;;;4968286;28;20059;-79
2024/01/29 12:49:46;;;;;;;12.32;5.25;;;6.60;99.90;;;;;;4952917;28;20173;-78
2024/01/29 12:52:12;;;;;;;8.95;6.05;;;6.60;99.90;;;;;;4988072;28;20149;-79